Ana Sayfa
METAR-TAF:

METAR-TAF

Havaalanları :

Çanakkale Havalimanı

Çanakkale, Türkiye

Enlem: 40-08N, Boylam: 026-24E, yükseklik: 3 m

Güncel hava durumu gözlemi

Rapor saat 06:50 UTC de 47 dakika önce yapıldı.
Rüzgar kuzeydoğudan 16 kt
Sıcaklık 16°C
Nem 82%
Basınç 1019 hPa
Görüş mesafesi: 6000 m
1500 ft yükseklikte az bulutlu

METAR: LTBH 220650Z 04016KT 6000 FEW015 16/13 Q1019

Saat: 10:37 (07:37 UTC)

Tahmin

Rapor saat 04:40 UTC de 2 saat ve 57 dakika önce yapıldı.
Ayın 22'si saat 06 UTC'den ayın 22'si saat 15 UTC'ye kadar geçerli Tahmin
Rüzgar kuzeydoğudan 15 kt
Görüş mesafesi 10 km veya daha fazla
3500 ft yükseklikte parçalı bulutlu

TAF: LTBH 220440Z 2206/2215 05015KT 9999 SCT035

4.000'den fazla havaalanı için hava durumu gözlemleri ve tahminleri (METAR ve TAF raporları).

Kullanılabilir istasyonlar harita üzerinde sarı ve kırmızı noktalarla gösterilir.

İstasyonun adını görmek için fareyi noktanın üzerinde gezdirin.

Sonrasında hava gözlem ve tahminlerini görmek için tıklayın.

Haritayı değiştirmek için: yaklaştırmak için siyah artı işaretli yeşil düğmeye ve uzaklaştırmak için de eksi işaretli düğmeye hızla tıklayın; bitişik haritalar için yeşil okları kullanın.


METAR-TAF: